createdAt,value
2022-12-02T00:00:23.478Z,24.98
2022-12-02T00:01:27.261Z,24.25
2022-12-02T00:02:34.640Z,24.45
2022-12-02T00:03:37.678Z,25.05
2022-12-02T00:04:41.037Z,25.58
2022-12-02T00:05:43.342Z,29.02
2022-12-02T00:06:45.792Z,25.02
2022-12-02T00:07:53.034Z,28.75
2022-12-02T00:09:33.187Z,25.35
2022-12-02T00:10:39.591Z,24.92
2022-12-02T00:11:42.083Z,26.65
2022-12-02T00:12:44.622Z,23.77
2022-12-02T00:13:47.023Z,27.17
2022-12-02T00:15:01.286Z,25.13
2022-12-02T00:16:04.901Z,21.52
2022-12-02T00:17:07.297Z,26.67
2022-12-02T00:18:14.195Z,26.52
2022-12-02T00:19:16.666Z,21.17
2022-12-02T00:20:18.959Z,22.25
2022-12-02T00:21:22.383Z,24.75
2022-12-02T00:22:25.044Z,28.73
2022-12-02T00:23:27.340Z,26.17
2022-12-02T00:24:29.678Z,25.70
2022-12-02T00:25:32.621Z,26.05
2022-12-02T00:26:35.010Z,24.40
2022-12-02T00:27:37.355Z,27.25
2022-12-02T00:28:39.808Z,23.25
2022-12-02T00:29:42.110Z,24.23
2022-12-02T00:30:44.908Z,23.58
2022-12-02T00:31:47.302Z,23.42
2022-12-02T00:32:50.989Z,22.65
2022-12-02T00:33:53.531Z,27.40
2022-12-02T00:34:55.883Z,25.65
2022-12-02T00:35:58.431Z,22.98
2022-12-02T00:37:00.975Z,23.23
2022-12-02T00:38:03.767Z,24.30
2022-12-02T00:39:06.057Z,23.60
2022-12-02T00:40:09.211Z,22.23
2022-12-02T00:41:11.546Z,23.85
2022-12-02T00:42:13.846Z,24.13
2022-12-02T00:43:34.891Z,24.08
2022-12-02T00:44:55.808Z,22.98
2022-12-02T00:46:17.068Z,22.38
2022-12-02T00:47:19.439Z,26.55
2022-12-02T00:48:21.736Z,26.42
2022-12-02T00:49:24.060Z,23.08
2022-12-02T00:50:26.644Z,25.95
2022-12-02T00:51:29.233Z,25.08
2022-12-02T00:52:33.812Z,26.42
2022-12-02T00:53:36.201Z,27.08
2022-12-02T00:54:38.524Z,23.38
2022-12-02T00:55:40.840Z,26.63
2022-12-02T00:56:43.246Z,25.83
2022-12-02T00:57:45.836Z,21.23
2022-12-02T00:58:48.183Z,23.17
2022-12-02T00:59:50.459Z,26.83
2022-12-02T01:00:54.176Z,28.65
2022-12-02T01:01:56.749Z,24.35
2022-12-02T01:02:59.965Z,25.73
2022-12-02T01:04:02.796Z,23.25
2022-12-02T01:05:05.654Z,23.05
2022-12-02T01:06:08.003Z,18.95
2022-12-02T01:07:10.490Z,22.05
2022-12-02T01:08:12.938Z,24.00
2022-12-02T01:09:15.363Z,24.65
2022-12-02T01:10:17.705Z,25.58
2022-12-02T01:11:20.034Z,21.80
2022-12-02T01:12:22.348Z,22.48
2022-12-02T01:13:26.729Z,22.77
2022-12-02T01:14:29.376Z,23.60
2022-12-02T01:15:31.750Z,22.48
2022-12-02T01:16:35.242Z,22.65
2022-12-02T01:17:37.712Z,22.75
2022-12-02T01:18:40.035Z,21.85
2022-12-02T01:19:43.034Z,20.30
2022-12-02T01:20:45.411Z,21.27
2022-12-02T01:21:47.799Z,21.45
2022-12-02T01:22:50.138Z,22.52
2022-12-02T01:23:52.557Z,24.75
2022-12-02T01:24:55.003Z,26.17
2022-12-02T01:25:57.358Z,22.33
2022-12-02T01:26:59.698Z,21.80
2022-12-02T01:28:02.129Z,23.58
2022-12-02T01:29:04.478Z,22.42
2022-12-02T01:30:09.346Z,22.13
2022-12-02T01:31:11.903Z,24.60
2022-12-02T01:32:14.630Z,25.30
2022-12-02T01:33:17.019Z,23.55
2022-12-02T01:34:19.374Z,24.58
2022-12-02T01:35:22.748Z,23.77
2022-12-02T01:36:25.091Z,21.77
2022-12-02T01:37:28.521Z,20.50
2022-12-02T01:38:30.981Z,26.02
2022-12-02T01:39:33.483Z,22.27
2022-12-02T01:40:35.914Z,23.20
2022-12-02T01:41:38.322Z,25.05
2022-12-02T01:42:40.904Z,21.65
2022-12-02T01:43:43.442Z,22.60
2022-12-02T01:44:45.823Z,21.77
2022-12-02T01:45:48.398Z,19.88
2022-12-02T01:46:50.968Z,26.33
2022-12-02T01:47:53.680Z,21.80
2022-12-02T01:48:56.157Z,21.88
2022-12-02T01:49:58.567Z,21.15
2022-12-02T01:51:00.954Z,20.70
2022-12-02T01:52:03.488Z,22.13
2022-12-02T01:53:05.961Z,22.45
2022-12-02T01:54:08.389Z,23.92
2022-12-02T01:55:19.093Z,23.95
2022-12-02T01:56:21.464Z,24.30
2022-12-02T01:57:28.485Z,21.42
2022-12-02T01:58:31.831Z,25.13
2022-12-02T01:59:34.227Z,23.20
2022-12-02T02:00:36.796Z,20.33
2022-12-02T02:01:39.931Z,22.50
2022-12-02T02:02:42.726Z,21.02
2022-12-02T02:03:45.065Z,23.10
2022-12-02T02:04:48.565Z,23.45
2022-12-02T02:05:51.651Z,22.10
2022-12-02T02:06:54.148Z,25.83
2022-12-02T02:08:07.017Z,21.95
2022-12-02T02:09:10.684Z,23.08
2022-12-02T02:10:13.072Z,19.38
2022-12-02T02:11:16.576Z,24.85
2022-12-02T02:12:19.536Z,20.48
2022-12-02T02:13:22.432Z,25.42
2022-12-02T02:14:24.776Z,24.63
2022-12-02T02:15:27.973Z,23.10
2022-12-02T02:16:30.689Z,22.75
2022-12-02T02:17:33.886Z,21.10
2022-12-02T02:18:36.292Z,19.17
2022-12-02T02:19:38.650Z,22.55
2022-12-02T02:20:42.122Z,24.20
2022-12-02T02:21:49.970Z,22.48
2022-12-02T02:23:05.696Z,21.35
2022-12-02T02:24:09.787Z,24.73
2022-12-02T02:25:20.131Z,21.83
2022-12-02T02:26:24.157Z,20.70
2022-12-02T02:27:26.503Z,26.70
2022-12-02T02:28:29.371Z,21.52
2022-12-02T02:29:31.892Z,22.38
2022-12-02T02:30:36.487Z,22.00
2022-12-02T02:31:39.146Z,23.00
2022-12-02T02:32:42.503Z,21.48
2022-12-02T02:33:45.341Z,25.17
2022-12-02T02:34:47.743Z,25.33
2022-12-02T02:35:50.790Z,24.52
2022-12-02T02:36:53.716Z,19.13
2022-12-02T02:37:56.750Z,20.77
2022-12-02T02:38:59.997Z,22.35
2022-12-02T02:40:03.569Z,22.85
2022-12-02T02:41:07.159Z,23.30
2022-12-02T02:42:09.840Z,20.42
2022-12-02T02:43:13.163Z,22.17
2022-12-02T02:44:19.389Z,21.60
2022-12-02T02:45:29.638Z,23.63
2022-12-02T02:46:34.843Z,21.80
2022-12-02T02:47:37.529Z,23.80
2022-12-02T02:48:41.495Z,21.88
2022-12-02T02:49:44.113Z,23.63
2022-12-02T02:50:48.467Z,20.92
2022-12-02T02:51:52.689Z,23.60
2022-12-02T02:52:55.512Z,20.45
2022-12-02T02:53:58.122Z,21.85
2022-12-02T02:55:00.509Z,19.88
2022-12-02T02:56:04.087Z,27.92
2022-12-02T02:57:09.575Z,24.13
2022-12-02T02:58:19.528Z,18.65
2022-12-02T02:59:24.559Z,20.50
2022-12-02T03:00:26.943Z,18.83
2022-12-02T03:01:36.910Z,21.52
2022-12-02T03:02:40.958Z,23.35
2022-12-02T03:03:47.096Z,22.77
2022-12-02T03:04:50.214Z,21.13
2022-12-02T03:05:55.086Z,19.27
2022-12-02T03:06:57.814Z,19.48
2022-12-02T03:08:00.742Z,21.60
2022-12-02T03:09:06.006Z,21.48
2022-12-02T03:10:10.234Z,20.80
2022-12-02T03:11:13.215Z,23.00
2022-12-02T03:12:16.977Z,25.05
2022-12-02T03:13:19.655Z,21.77
2022-12-02T03:14:22.756Z,24.00
2022-12-02T03:15:27.260Z,24.35
2022-12-02T03:16:29.689Z,25.50
2022-12-02T03:17:32.313Z,25.48
2022-12-02T03:18:35.890Z,21.50
2022-12-02T03:19:39.666Z,24.15
2022-12-02T03:20:42.073Z,22.60
2022-12-02T03:21:44.871Z,20.73
2022-12-02T03:22:47.299Z,24.75
2022-12-02T03:23:53.035Z,24.60
2022-12-02T03:24:56.134Z,21.33
2022-12-02T03:25:59.381Z,19.85
2022-12-02T03:27:02.319Z,24.13
2022-12-02T03:28:05.710Z,21.08
2022-12-02T03:29:10.514Z,22.77
2022-12-02T03:30:17.961Z,21.95
2022-12-02T03:31:21.626Z,22.80
2022-12-02T03:32:24.278Z,24.27
2022-12-02T03:33:27.596Z,24.08
2022-12-02T03:34:30.292Z,22.05
2022-12-02T03:35:32.891Z,20.25
2022-12-02T03:36:35.671Z,23.52
2022-12-02T03:37:39.709Z,22.30
2022-12-02T03:38:42.877Z,23.98
2022-12-02T03:39:45.859Z,23.17
2022-12-02T03:40:48.687Z,25.17
2022-12-02T03:41:51.194Z,23.15
2022-12-02T03:42:54.227Z,24.23
2022-12-02T03:43:58.284Z,23.48
2022-12-02T03:45:01.634Z,23.38
2022-12-02T03:46:06.119Z,24.45
2022-12-02T03:47:08.799Z,24.05
2022-12-02T03:48:12.621Z,22.85
2022-12-02T03:49:15.970Z,23.25
2022-12-02T03:50:18.741Z,22.90
2022-12-02T03:51:21.083Z,26.25
2022-12-02T03:52:23.476Z,23.85
2022-12-02T03:53:26.121Z,22.90
2022-12-02T03:54:28.618Z,20.92
2022-12-02T03:55:31.099Z,24.85
2022-12-02T03:56:38.254Z,22.80
2022-12-02T03:57:42.094Z,23.05
2022-12-02T03:58:52.101Z,21.35
2022-12-02T03:59:54.428Z,19.38
2022-12-02T04:00:56.811Z,23.17
2022-12-02T04:01:59.380Z,23.40
2022-12-02T04:03:02.547Z,20.98
2022-12-02T04:04:05.049Z,22.30
2022-12-02T04:05:07.762Z,25.20
2022-12-02T04:06:10.578Z,19.75
2022-12-02T04:07:12.875Z,18.88
2022-12-02T04:08:15.163Z,21.65
2022-12-02T04:09:17.547Z,22.17
2022-12-02T04:10:19.963Z,25.85
2022-12-02T04:11:22.425Z,24.08
2022-12-02T04:12:24.746Z,22.27
2022-12-02T04:13:27.195Z,22.98
2022-12-02T04:14:29.698Z,25.08
2022-12-02T04:15:32.369Z,21.17
2022-12-02T04:16:34.777Z,22.23
2022-12-02T04:17:37.165Z,24.25
2022-12-02T04:18:39.529Z,24.42
2022-12-02T04:19:41.785Z,22.35
2022-12-02T04:20:44.236Z,20.70
2022-12-02T04:21:46.517Z,19.38
2022-12-02T04:22:48.810Z,22.35
2022-12-02T04:23:52.763Z,24.83
2022-12-02T04:24:58.696Z,25.20
2022-12-02T04:26:01.014Z,23.40
2022-12-02T04:27:03.490Z,22.25
2022-12-02T04:28:05.862Z,25.92
2022-12-02T04:29:08.420Z,27.40
2022-12-02T04:30:10.994Z,18.95
2022-12-02T04:31:13.615Z,24.95
2022-12-02T04:32:16.100Z,21.65
2022-12-02T04:33:18.487Z,22.40
2022-12-02T04:34:20.870Z,23.85
2022-12-02T04:35:23.516Z,21.50
2022-12-02T04:36:25.943Z,19.42
2022-12-02T04:37:28.282Z,25.02
2022-12-02T04:38:30.637Z,25.83
2022-12-02T04:39:32.977Z,20.42
2022-12-02T04:40:35.419Z,18.73
2022-12-02T04:41:37.673Z,23.38
2022-12-02T04:42:40.016Z,23.52
2022-12-02T04:43:42.533Z,21.92
2022-12-02T04:44:44.915Z,19.40
2022-12-02T04:45:47.258Z,25.67
2022-12-02T04:46:49.606Z,25.02
2022-12-02T04:47:52.043Z,20.02
2022-12-02T04:48:54.328Z,25.58
2022-12-02T04:49:56.634Z,24.55
2022-12-02T04:50:58.986Z,29.00
2022-12-02T04:52:01.233Z,86.95
2022-12-02T04:53:03.782Z,239.27
2022-12-02T04:54:06.169Z,141.98
2022-12-02T04:55:08.940Z,140.63
2022-12-02T04:56:11.350Z,91.28
2022-12-02T04:57:13.677Z,77.40
2022-12-02T04:58:16.287Z,87.00
2022-12-02T04:59:18.568Z,52.72
2022-12-02T05:00:21.098Z,50.42
2022-12-02T05:01:23.429Z,43.20
2022-12-02T05:02:25.854Z,42.58
2022-12-02T05:03:28.153Z,33.47
2022-12-02T05:04:33.989Z,37.28
2022-12-02T05:05:39.109Z,33.22
2022-12-02T05:06:41.444Z,37.30
2022-12-02T05:07:43.890Z,37.55
2022-12-02T05:08:46.281Z,32.40
2022-12-02T05:09:48.648Z,31.80
2022-12-02T05:10:51.122Z,28.48
2022-12-02T05:11:53.414Z,25.08
2022-12-02T05:12:55.715Z,24.10
2022-12-02T05:13:58.612Z,26.13
2022-12-02T05:15:00.974Z,26.75
2022-12-02T05:16:03.494Z,23.00
2022-12-02T05:17:05.896Z,29.90
2022-12-02T05:18:08.283Z,22.88
2022-12-02T05:19:10.574Z,20.80
2022-12-02T05:20:13.341Z,23.58
2022-12-02T05:21:15.701Z,22.88
2022-12-02T05:22:18.026Z,23.60
2022-12-02T05:23:20.381Z,23.83
2022-12-02T05:24:22.667Z,22.95
2022-12-02T05:25:25.030Z,23.45
2022-12-02T05:26:27.383Z,20.80
2022-12-02T05:27:35.036Z,24.00
2022-12-02T05:28:37.820Z,26.70
2022-12-02T05:29:40.228Z,23.17
2022-12-02T05:30:42.534Z,23.38
2022-12-02T05:31:44.972Z,23.10
2022-12-02T05:32:47.289Z,23.95
2022-12-02T05:33:50.071Z,24.48
2022-12-02T05:34:52.631Z,26.50
2022-12-02T05:35:55.893Z,81.40
2022-12-02T05:36:58.158Z,61.65
2022-12-02T05:38:04.843Z,56.38
2022-12-02T05:39:07.648Z,31.98
2022-12-02T05:40:10.378Z,27.25
2022-12-02T05:41:12.689Z,28.25
2022-12-02T05:42:15.524Z,23.58
2022-12-02T05:43:21.251Z,21.90
2022-12-02T05:44:25.607Z,25.25
2022-12-02T05:45:27.907Z,22.38
2022-12-02T05:46:30.385Z,19.65
2022-12-02T05:47:32.974Z,22.30
2022-12-02T05:48:35.481Z,19.55
2022-12-02T05:49:38.320Z,23.70
2022-12-02T05:50:42.157Z,20.45
2022-12-02T05:51:48.354Z,25.08
2022-12-02T05:52:52.214Z,20.30
2022-12-02T05:53:54.645Z,19.45
2022-12-02T05:55:07.637Z,20.35
2022-12-02T05:56:17.949Z,22.15
2022-12-02T05:57:28.063Z,20.33
2022-12-02T05:58:30.834Z,23.33
2022-12-02T05:59:33.182Z,17.75
2022-12-02T06:00:36.992Z,21.05
2022-12-02T06:01:40.188Z,18.65
2022-12-02T06:03:05.344Z,20.25
2022-12-02T06:04:34.031Z,22.35
2022-12-02T06:05:45.655Z,20.15
2022-12-02T06:06:48.520Z,18.60
2022-12-02T06:07:57.151Z,18.20
2022-12-02T06:09:00.193Z,17.20
2022-12-02T06:10:02.552Z,18.92
2022-12-02T06:11:34.021Z,18.65
2022-12-02T06:12:36.301Z,21.63
2022-12-02T06:13:39.345Z,18.90
2022-12-02T06:14:47.866Z,24.48
2022-12-02T06:15:51.463Z,23.25
2022-12-02T06:16:57.612Z,31.45
2022-12-02T06:18:00.044Z,39.22
2022-12-02T06:19:08.749Z,45.80
2022-12-02T06:20:29.890Z,55.17
2022-12-02T06:21:32.378Z,68.82
2022-12-02T06:22:34.867Z,50.95
2022-12-02T06:23:44.101Z,30.35
2022-12-02T06:24:47.020Z,26.38
2022-12-02T06:25:52.466Z,26.05
2022-12-02T06:26:57.957Z,22.08
2022-12-02T06:28:22.027Z,23.92
2022-12-02T06:29:25.858Z,19.98
2022-12-02T06:30:28.308Z,25.60
2022-12-02T06:31:39.291Z,25.67
2022-12-02T06:33:49.228Z,18.70
2022-12-02T06:34:53.345Z,25.77
2022-12-02T06:35:57.348Z,21.30
2022-12-02T06:37:09.222Z,21.65
2022-12-02T06:38:25.050Z,21.63
2022-12-02T06:39:27.539Z,18.25
2022-12-02T06:40:33.005Z,19.10
2022-12-02T06:41:37.920Z,18.00
2022-12-02T06:42:40.283Z,22.35
2022-12-02T06:44:02.595Z,23.02
2022-12-02T06:45:14.068Z,22.85
2022-12-02T06:47:37.463Z,27.60
2022-12-02T06:48:40.624Z,21.85
2022-12-02T06:49:42.933Z,21.50
2022-12-02T06:50:48.007Z,22.73
2022-12-02T06:51:56.651Z,20.52
2022-12-02T06:53:07.888Z,23.00
2022-12-02T06:54:19.239Z,27.30
2022-12-02T06:56:41.555Z,23.63
2022-12-02T06:57:43.920Z,23.02
2022-12-02T06:58:54.306Z,21.00
2022-12-02T06:59:57.112Z,22.52
2022-12-02T07:01:08.324Z,26.88
2022-12-02T07:02:27.509Z,32.15
2022-12-02T07:03:32.538Z,28.60
2022-12-02T07:04:45.734Z,24.92
2022-12-02T07:05:48.165Z,27.67
2022-12-02T07:06:54.320Z,31.02
2022-12-02T07:07:56.681Z,55.38
2022-12-02T07:09:19.492Z,47.05
2022-12-02T07:10:27.463Z,55.75
2022-12-02T07:11:51.715Z,52.53
2022-12-02T07:12:57.410Z,54.28
2022-12-02T07:13:59.756Z,43.33
2022-12-02T07:15:26.227Z,40.40
2022-12-02T07:16:34.927Z,27.23
2022-12-02T07:17:40.266Z,23.00
2022-12-02T07:18:42.566Z,27.55
2022-12-02T07:19:46.882Z,24.92
2022-12-02T07:20:50.099Z,26.50
2022-12-02T07:21:53.798Z,26.60
2022-12-02T07:23:21.042Z,24.42
2022-12-02T07:24:24.718Z,24.13
2022-12-02T07:25:39.523Z,24.20
2022-12-02T07:26:44.309Z,28.45
2022-12-02T07:27:49.571Z,28.75
2022-12-02T07:29:14.545Z,24.52
2022-12-02T07:30:23.097Z,25.15
2022-12-02T07:31:28.063Z,24.15
2022-12-02T07:32:30.619Z,26.88
2022-12-02T07:33:32.910Z,22.20
2022-12-02T07:34:35.221Z,25.70
2022-12-02T07:35:37.539Z,24.40
2022-12-02T07:36:40.251Z,21.13
2022-12-02T07:37:42.634Z,25.15
2022-12-02T07:40:08.100Z,20.70
2022-12-02T07:41:10.739Z,23.00
2022-12-02T07:42:14.755Z,25.15
2022-12-02T07:43:17.066Z,24.35
2022-12-02T07:44:19.391Z,21.73
2022-12-02T07:45:21.731Z,20.83
2022-12-02T07:46:26.035Z,20.77
2022-12-02T07:47:28.881Z,22.67
2022-12-02T07:48:31.544Z,20.42
2022-12-02T07:49:33.889Z,19.27
2022-12-02T07:50:36.491Z,19.33
2022-12-02T07:51:39.014Z,20.85
2022-12-02T07:52:41.375Z,19.20
2022-12-02T07:53:43.931Z,19.27
2022-12-02T07:54:46.406Z,18.05
2022-12-02T07:55:48.765Z,19.17
2022-12-02T07:56:51.200Z,20.50
2022-12-02T07:57:53.823Z,22.73
2022-12-02T07:59:12.004Z,23.42
2022-12-02T08:00:15.551Z,19.75
2022-12-02T08:01:19.973Z,20.65
2022-12-02T08:02:22.786Z,24.48
2022-12-02T08:03:25.517Z,19.23
2022-12-02T08:04:28.294Z,22.05
2022-12-02T08:05:30.732Z,16.60
2022-12-02T08:06:38.719Z,21.95
2022-12-02T08:07:42.645Z,23.85
2022-12-02T08:08:45.230Z,24.65
2022-12-02T08:09:47.570Z,23.67
2022-12-02T08:10:50.054Z,19.48
2022-12-02T08:11:52.303Z,26.55
2022-12-02T08:12:54.625Z,31.35
2022-12-02T08:13:56.964Z,19.85
2022-12-02T08:14:59.271Z,16.48
2022-12-02T08:16:01.616Z,23.80
2022-12-02T08:17:03.954Z,23.25
2022-12-02T08:18:06.332Z,22.00
2022-12-02T08:19:08.686Z,18.80
2022-12-02T08:20:12.316Z,17.73
2022-12-02T08:21:14.977Z,19.15
2022-12-02T08:22:17.491Z,19.13
2022-12-02T08:23:19.794Z,18.33
2022-12-02T08:24:22.201Z,18.77
2022-12-02T08:25:24.616Z,18.95
2022-12-02T08:26:27.015Z,16.67
2022-12-02T08:27:29.282Z,14.43
2022-12-02T08:28:31.646Z,19.75
2022-12-02T08:29:34.738Z,17.10
2022-12-02T08:30:37.093Z,19.75
2022-12-02T08:31:39.710Z,19.75
2022-12-02T08:32:41.990Z,16.50
2022-12-02T08:33:44.334Z,16.40
2022-12-02T08:34:47.273Z,17.50
2022-12-02T08:35:49.677Z,22.08
2022-12-02T08:36:52.094Z,18.30
2022-12-02T08:37:54.381Z,17.67
2022-12-02T08:38:56.710Z,31.45
2022-12-02T08:39:59.018Z,26.48
2022-12-02T08:41:01.477Z,49.63
2022-12-02T08:42:04.498Z,34.90
2022-12-02T08:43:06.886Z,29.05
2022-12-02T08:44:09.196Z,28.92
2022-12-02T08:45:12.178Z,20.67
2022-12-02T08:46:14.933Z,18.52
2022-12-02T08:47:17.394Z,18.25
2022-12-02T08:48:19.853Z,16.60
2022-12-02T08:49:22.890Z,19.90
2022-12-02T08:50:26.071Z,20.90
2022-12-02T08:51:28.521Z,20.85
2022-12-02T08:52:30.981Z,24.00
2022-12-02T08:53:33.321Z,19.67
2022-12-02T08:54:35.762Z,18.20
2022-12-02T08:55:38.083Z,17.77
2022-12-02T08:56:40.595Z,19.65
2022-12-02T08:57:42.943Z,21.48
2022-12-02T08:58:45.328Z,28.33
2022-12-02T08:59:47.655Z,20.85
2022-12-02T09:00:50.002Z,18.15
2022-12-02T09:01:52.399Z,20.58
2022-12-02T09:02:54.904Z,18.98
2022-12-02T09:03:57.348Z,19.52
2022-12-02T09:04:59.793Z,23.08
2022-12-02T09:06:02.488Z,20.75
2022-12-02T09:07:04.837Z,21.80
2022-12-02T09:08:08.061Z,20.77
2022-12-02T09:09:10.870Z,26.25
2022-12-02T09:10:15.516Z,21.50
2022-12-02T09:11:17.975Z,24.55
2022-12-02T09:12:20.635Z,19.27
2022-12-02T09:13:22.980Z,19.45
2022-12-02T09:14:28.161Z,20.83
2022-12-02T09:15:30.469Z,19.40
2022-12-02T09:16:32.835Z,16.80
2022-12-02T09:17:35.215Z,16.15
2022-12-02T09:18:37.538Z,22.75
2022-12-02T09:19:39.989Z,17.77
2022-12-02T09:20:42.680Z,20.42
2022-12-02T09:21:45.336Z,37.50
2022-12-02T09:22:47.719Z,21.48
2022-12-02T09:23:50.974Z,17.88
2022-12-02T09:24:53.683Z,16.67
2022-12-02T09:25:56.533Z,14.48
2022-12-02T09:26:59.107Z,19.17
2022-12-02T09:28:01.516Z,14.70
2022-12-02T09:29:04.269Z,15.65
2022-12-02T09:30:07.827Z,31.05
2022-12-02T09:31:10.202Z,18.52
2022-12-02T09:32:12.623Z,82.82
2022-12-02T09:33:15.165Z,79.97
2022-12-02T09:34:18.022Z,102.20
2022-12-02T09:35:20.480Z,50.35
2022-12-02T09:36:24.666Z,22.70
2022-12-02T09:37:27.340Z,29.75
2022-12-02T09:38:32.064Z,120.55
2022-12-02T09:39:38.686Z,174.55
2022-12-02T09:40:42.230Z,207.85
2022-12-02T09:41:45.469Z,186.40
2022-12-02T09:42:47.996Z,202.25
2022-12-02T09:43:50.830Z,219.38
2022-12-02T09:44:53.803Z,252.55
2022-12-02T09:45:57.523Z,184.30
2022-12-02T09:47:00.106Z,171.93
2022-12-02T09:48:02.898Z,268.63
2022-12-02T09:49:06.857Z,188.05
2022-12-02T09:50:13.737Z,188.63
2022-12-02T09:51:16.202Z,137.15
2022-12-02T09:52:26.930Z,180.18
2022-12-02T09:53:36.770Z,142.65
2022-12-02T09:54:39.192Z,146.25
2022-12-02T09:55:41.666Z,191.45
2022-12-02T09:56:44.575Z,160.35
2022-12-02T09:57:47.506Z,200.20
2022-12-02T09:58:53.403Z,249.10
2022-12-02T09:59:56.426Z,218.30
2022-12-02T10:00:58.855Z,223.35
2022-12-02T10:02:01.494Z,220.63
2022-12-02T10:03:07.343Z,236.18
2022-12-02T10:04:13.080Z,244.63
2022-12-02T10:05:27.582Z,235.32
2022-12-02T10:06:30.080Z,166.15
2022-12-02T10:07:32.500Z,205.70
2022-12-02T10:08:36.282Z,206.48
2022-12-02T10:09:38.666Z,156.80
2022-12-02T10:10:42.887Z,164.18
2022-12-02T10:11:45.698Z,176.77
2022-12-02T10:12:48.651Z,166.35
2022-12-02T10:13:51.377Z,147.10
2022-12-02T10:14:54.049Z,153.73
2022-12-02T10:15:56.729Z,129.93
2022-12-02T10:16:59.668Z,139.35
2022-12-02T10:18:10.792Z,137.93
2022-12-02T10:19:18.759Z,150.98
2022-12-02T10:20:24.620Z,153.10
2022-12-02T10:21:27.164Z,126.53
2022-12-02T10:22:29.712Z,147.35
2022-12-02T10:23:37.816Z,147.50
2022-12-02T10:24:42.156Z,122.22
2022-12-02T10:25:51.091Z,160.73
2022-12-02T10:26:53.551Z,144.13
2022-12-02T10:27:55.990Z,143.18
2022-12-02T10:29:00.210Z,142.13
2022-12-02T10:30:22.389Z,157.63
2022-12-02T10:31:24.812Z,156.45
2022-12-02T10:32:27.947Z,166.82
2022-12-02T10:33:33.908Z,130.55
2022-12-02T10:34:36.677Z,129.80
2022-12-02T10:35:47.565Z,136.25
2022-12-02T10:36:50.471Z,162.65
2022-12-02T10:37:55.495Z,175.70
2022-12-02T10:39:18.994Z,195.18
2022-12-02T10:40:25.543Z,181.75
2022-12-02T10:41:29.916Z,175.95
2022-12-02T10:42:32.276Z,151.13
2022-12-02T10:43:34.553Z,140.98
2022-12-02T10:44:44.462Z,121.85
2022-12-02T10:45:58.919Z,135.13
2022-12-02T10:47:26.171Z,119.30
2022-12-02T10:48:29.054Z,126.25
2022-12-02T10:49:36.450Z,132.65
2022-12-02T10:50:40.181Z,123.35
2022-12-02T10:51:42.568Z,110.63
2022-12-02T10:52:48.590Z,127.65
2022-12-02T10:53:57.073Z,100.15
2022-12-02T10:55:00.249Z,112.30
2022-12-02T10:56:02.833Z,118.57
2022-12-02T10:57:06.554Z,118.85
2022-12-02T10:58:15.797Z,141.90
2022-12-02T10:59:18.218Z,128.90
2022-12-02T11:00:23.796Z,126.15
2022-12-02T11:01:26.188Z,108.05
2022-12-02T11:02:33.225Z,113.80
2022-12-02T11:03:35.607Z,108.00
2022-12-02T11:04:37.902Z,112.10
2022-12-02T11:05:40.739Z,148.40
2022-12-02T11:06:44.521Z,115.90
2022-12-02T11:08:00.402Z,162.40
2022-12-02T11:09:37.953Z,114.00
2022-12-02T11:10:32.593Z,109.03
2022-12-02T11:11:34.810Z,105.63
2022-12-02T11:12:59.442Z,94.03
2022-12-02T11:14:04.803Z,132.82
2022-12-02T11:15:46.186Z,94.43
2022-12-02T11:17:05.971Z,102.43
2022-12-02T11:18:30.539Z,99.55
2022-12-02T11:19:35.994Z,117.25
2022-12-02T11:20:41.310Z,99.72
2022-12-02T11:21:45.433Z,103.15
2022-12-02T11:23:25.356Z,134.20
2022-12-02T11:24:31.738Z,111.13
2022-12-02T11:26:12.767Z,131.77
2022-12-02T11:27:18.701Z,105.65
2022-12-02T11:28:44.771Z,104.05
2022-12-02T11:30:06.904Z,92.72
2022-12-02T11:31:12.078Z,66.28
2022-12-02T11:32:26.249Z,61.28
2022-12-02T11:33:43.530Z,60.75
2022-12-02T11:35:15.720Z,41.15
2022-12-02T11:36:10.404Z,54.33
2022-12-02T11:37:28.309Z,51.55
2022-12-02T11:38:53.051Z,42.30
2022-12-02T11:39:56.331Z,55.88
2022-12-02T11:41:00.099Z,57.28
2022-12-02T11:42:02.384Z,102.90
2022-12-02T11:43:45.434Z,88.28
2022-12-02T11:44:47.750Z,80.95
2022-12-02T11:45:57.997Z,75.25
2022-12-02T11:47:03.121Z,81.70
2022-12-02T11:48:16.616Z,60.47
2022-12-02T11:49:32.687Z,77.80
2022-12-02T11:50:39.416Z,68.57
2022-12-02T11:51:41.953Z,74.07
2022-12-02T11:53:10.296Z,68.55
2022-12-02T11:54:15.550Z,66.35
2022-12-02T11:55:30.096Z,62.90
2022-12-02T11:56:41.038Z,61.72
2022-12-02T11:57:54.032Z,59.63
2022-12-02T11:58:57.773Z,55.33
2022-12-02T12:00:00.257Z,65.63
2022-12-02T12:01:16.226Z,58.30
2022-12-02T12:02:21.513Z,53.10
2022-12-02T12:03:25.533Z,51.67
2022-12-02T12:04:29.575Z,52.00
2022-12-02T12:05:31.968Z,54.40
2022-12-02T12:06:35.360Z,53.38
2022-12-02T12:08:01.313Z,46.30
2022-12-02T12:09:11.292Z,47.40
2022-12-02T12:10:33.135Z,55.88
2022-12-02T12:11:37.342Z,58.83
2022-12-02T12:13:11.532Z,47.35
2022-12-02T12:14:14.070Z,55.22
2022-12-02T12:15:16.468Z,57.05
2022-12-02T12:16:24.338Z,50.85
2022-12-02T12:17:40.690Z,44.55
2022-12-02T12:18:48.161Z,44.67
2022-12-02T12:19:50.463Z,46.00
2022-12-02T12:20:53.101Z,46.63
2022-12-02T12:21:57.157Z,41.90
2022-12-02T12:23:28.575Z,53.28
2022-12-02T12:24:32.396Z,44.58
2022-12-02T12:25:41.922Z,48.08
2022-12-02T12:26:46.406Z,43.53
2022-12-02T12:27:48.664Z,49.50
2022-12-02T12:28:51.149Z,57.67
2022-12-02T12:29:55.719Z,64.90
2022-12-02T12:31:00.025Z,64.55
2022-12-02T12:32:02.918Z,295.27
2022-12-02T12:33:05.537Z,299.60
2022-12-02T12:34:08.878Z,279.30
2022-12-02T12:35:11.256Z,218.20
2022-12-02T12:36:13.646Z,178.45
2022-12-02T12:37:15.961Z,144.65
2022-12-02T12:38:18.278Z,134.65
2022-12-02T12:39:20.617Z,97.32
2022-12-02T12:40:22.947Z,72.53
2022-12-02T12:41:51.403Z,111.43
2022-12-02T12:42:47.613Z,76.57
2022-12-02T12:43:50.446Z,74.82
2022-12-02T12:44:53.152Z,131.75
2022-12-02T12:45:55.748Z,181.95
2022-12-02T12:46:59.840Z,188.32
2022-12-02T12:48:02.580Z,155.38
2022-12-02T12:49:04.954Z,163.50
2022-12-02T12:50:07.835Z,157.40
2022-12-02T12:51:10.889Z,136.63
2022-12-02T12:52:13.219Z,136.23
2022-12-02T12:53:16.239Z,128.50
2022-12-02T12:54:18.840Z,132.27
2022-12-02T12:55:22.611Z,123.25
2022-12-02T12:56:24.955Z,119.35
2022-12-02T12:57:27.252Z,114.93
2022-12-02T12:58:29.687Z,115.43
2022-12-02T12:59:32.031Z,64.13
2022-12-02T13:00:34.505Z,78.18
2022-12-02T13:01:37.794Z,112.78
2022-12-02T13:02:40.231Z,97.53
2022-12-02T13:03:42.687Z,96.65
2022-12-02T13:04:45.011Z,101.25
2022-12-02T13:05:47.366Z,90.22
2022-12-02T13:06:50.043Z,98.03
2022-12-02T13:07:52.559Z,99.13
2022-12-02T13:08:54.942Z,93.40
2022-12-02T13:09:57.370Z,89.20
2022-12-02T13:10:59.858Z,95.90
2022-12-02T13:12:02.187Z,89.78
2022-12-02T13:13:04.789Z,86.50
2022-12-02T13:14:07.224Z,91.50
2022-12-02T13:15:09.896Z,105.65
2022-12-02T13:16:12.886Z,89.55
2022-12-02T13:17:15.394Z,79.25
2022-12-02T13:18:17.868Z,81.70
2022-12-02T13:19:20.192Z,63.78
2022-12-02T13:20:22.811Z,88.22
2022-12-02T13:21:25.147Z,118.20
2022-12-02T13:22:27.529Z,99.45
2022-12-02T13:23:29.881Z,147.25
2022-12-02T13:24:33.267Z,128.95
2022-12-02T13:25:38.084Z,108.95
2022-12-02T13:26:40.410Z,107.70
2022-12-02T13:27:43.103Z,96.53
2022-12-02T13:28:45.429Z,95.68
2022-12-02T13:29:47.903Z,88.38
2022-12-02T13:30:52.039Z,94.47
2022-12-02T13:31:54.426Z,86.70
2022-12-02T13:32:57.126Z,85.05
2022-12-02T13:33:59.543Z,81.40
2022-12-02T13:35:01.898Z,76.90
2022-12-02T13:36:04.369Z,87.47
2022-12-02T13:37:06.808Z,89.63
2022-12-02T13:38:09.124Z,94.10
2022-12-02T13:39:11.691Z,76.03
2022-12-02T13:40:17.568Z,77.95
2022-12-02T13:41:20.114Z,80.47
2022-12-02T13:42:22.557Z,78.65
2022-12-02T13:43:25.031Z,66.95
2022-12-02T13:44:27.483Z,61.38
2022-12-02T13:45:30.380Z,67.38
2022-12-02T13:46:32.976Z,68.65
2022-12-02T13:47:35.558Z,69.07
2022-12-02T13:48:38.037Z,63.55
2022-12-02T13:49:40.556Z,72.50
2022-12-02T13:50:43.449Z,70.15
2022-12-02T13:51:45.749Z,69.28
2022-12-02T13:52:48.098Z,66.05
2022-12-02T13:53:54.370Z,72.13
2022-12-02T13:55:00.923Z,64.97
2022-12-02T13:56:03.307Z,70.28